Weather at Montreal / Pierre Elliott Trudeau International Airport

Public forecast

Using degrees Celsius for public forecast. Weather courtesy of forecast.io.

Current aviation weather report (METAR) for Montreal / Pierre Elliott Trudeau International Airport

Retrieved 2021/04/20 23:00 UTC (23 minutes ago):

CYUL 202300Z 26016G21KT 30SM SCT055 BKN150 OVC210 08/M03 A2987 RMK SC4AC1CS3 SLP118

Aviation forecast (TAF) for Montreal / Pierre Elliott Trudeau International Airport

Retrieved 2021/04/20 21:45 UTC (2 hours ago):

TAF CYUL 202041Z 2021/2118 24018G30KT P6SM BKN060 BECMG 2100/2102 27012KT FM210200 27012KT P6SM BKN030 OVC100 FM210900 34008KT 6SM -SN BKN020 OVC070 FM211100 35008KT 4SM -SN OVC020 FM211600 02010KT 2SM -SN BKN012 OVC030 RMK NXT FCST BY 210000Z